Time;durP1;ratioP1;P1;durP2;ratioP2;P2;SDS_P1;SDS_P2;PMS_P1;PMS_P2;Temp;Humidity;BMP_temperature;BMP_pressure;BME280_temperature;BME280_humidity;BME280_pressure;Samples;Min_cycle;Max_cycle;Signal;HPM_P1;HPM_P2
2022/08/22 00:00:56;;;;;;;33.67;31.90;;;17.80;69.20;;;;;;5003928;28;21059;-69
2022/08/22 00:03:38;;;;;;;34.27;32.40;;;17.80;69.60;;;;;;5007444;28;20559;-69
2022/08/22 00:06:14;;;;;;;34.60;32.70;;;17.80;69.40;;;;;;5009098;28;20540;-69
2022/08/22 00:08:58;;;;;;;33.07;31.33;;;17.70;69.70;;;;;;5000310;28;20830;-67
2022/08/22 00:11:37;;;;;;;34.30;32.50;;;17.60;69.80;;;;;;5006447;28;20570;-69
2022/08/22 00:14:13;;;;;;;33.53;31.83;;;17.50;70.10;;;;;;5004464;28;21089;-68
2022/08/22 00:16:49;;;;;;;33.60;31.50;;;17.60;70.10;;;;;;5007293;28;20460;-69
2022/08/22 00:19:24;;;;;;;34.97;33.17;;;17.60;70.20;;;;;;4996751;28;20559;-68
2022/08/22 00:22:00;;;;;;;34.97;33.07;;;17.60;70.40;;;;;;5008417;28;20906;-69
2022/08/22 00:24:30;;;;;;;33.80;32.13;;;17.60;70.40;;;;;;4997151;28;20466;-69
2022/08/22 00:27:03;;;;;;;32.50;30.90;;;17.70;70.20;;;;;;5006387;28;20470;-69
2022/08/22 00:29:37;;;;;;;32.63;30.93;;;17.70;70.20;;;;;;5003818;28;20469;-69
2022/08/22 00:32:16;;;;;;;31.97;29.90;;;17.80;69.90;;;;;;5011114;28;20483;-68
2022/08/22 00:34:50;;;;;;;32.63;31.00;;;17.80;69.30;;;;;;5006354;28;20459;-69
2022/08/22 00:37:23;;;;;;;34.07;32.20;;;17.80;69.10;;;;;;5001269;28;20469;-69
2022/08/22 00:39:55;;;;;;;34.00;32.30;;;17.80;69.20;;;;;;5004444;28;20460;-69
2022/08/22 00:42:57;;;;;;;32.57;30.73;;;17.80;69.40;;;;;;5011190;28;20855;-68
2022/08/22 00:45:48;;;;;;;32.40;30.70;;;17.80;69.00;;;;;;5006597;28;20672;-68
2022/08/22 00:48:43;;;;;;;32.90;31.20;;;17.80;69.20;;;;;;5004856;28;20551;-70
2022/08/22 00:51:43;;;;;;;33.70;31.90;;;17.80;68.90;;;;;;4998107;28;20478;-67
2022/08/22 00:54:23;;;;;;;33.83;32.10;;;17.80;69.20;;;;;;5008176;28;20477;-67
2022/08/22 00:57:13;;;;;;;32.87;31.10;;;17.80;69.20;;;;;;5008551;28;20543;-67
2022/08/22 01:00:10;;;;;;;33.70;32.00;;;17.80;69.20;;;;;;5002810;28;20459;-67
2022/08/22 01:03:01;;;;;;;34.20;32.23;;;17.70;69.30;;;;;;5008803;28;20460;-67
2022/08/22 01:05:40;;;;;;;34.13;31.93;;;17.70;69.30;;;;;;5004967;28;20842;-71
2022/08/22 01:08:23;;;;;;;32.40;30.53;;;17.70;69.60;;;;;;5007427;28;20488;-71
2022/08/22 01:11:06;;;;;;;33.87;32.17;;;17.70;69.60;;;;;;5008345;28;20564;-69
2022/08/22 01:13:46;;;;;;;33.13;31.33;;;17.70;69.10;;;;;;5006372;28;20495;-69
2022/08/22 01:16:31;;;;;;;33.03;31.33;;;17.70;69.10;;;;;;5010739;28;20484;-67
2022/08/22 01:19:26;;;;;;;32.97;31.17;;;17.70;69.10;;;;;;5001950;28;20551;-67
2022/08/22 01:22:23;;;;;;;33.50;31.60;;;17.60;69.20;;;;;;5006073;28;20519;-67
2022/08/22 01:25:32;;;;;;;32.17;30.57;;;17.50;69.80;;;;;;5002249;28;20574;-67
2022/08/22 01:28:37;;;;;;;34.30;32.50;;;17.40;70.20;;;;;;5004115;28;20907;-71
2022/08/22 01:31:49;;;;;;;34.40;32.70;;;17.40;70.60;;;;;;5007800;28;20924;-64
2022/08/22 01:34:48;;;;;;;34.00;32.20;;;17.30;70.50;;;;;;4975239;28;20488;-65
2022/08/22 01:37:46;;;;;;;34.10;32.40;;;17.20;70.70;;;;;;5007454;28;20482;-65
2022/08/22 01:40:51;;;;;;;33.70;31.80;;;17.10;71.30;;;;;;5004975;28;20541;-65
2022/08/22 01:43:30;;;;;;;34.30;32.50;;;17.10;71.80;;;;;;5003339;28;20933;-65
2022/08/22 01:46:28;;;;;;;35.17;33.37;;;17.10;72.00;;;;;;5009226;28;20459;-65
2022/08/22 01:49:04;;;;;;;35.07;33.07;;;17.10;72.00;;;;;;4999200;28;20542;-65
2022/08/22 01:51:45;;;;;;;33.40;31.70;;;17.00;72.00;;;;;;5010130;28;20476;-65
2022/08/22 01:54:21;;;;;;;33.90;32.20;;;16.90;72.40;;;;;;4999637;28;20522;-65
2022/08/22 01:56:48;;;;;;;34.20;32.30;;;16.80;72.80;;;;;;4998118;28;20549;-65
2022/08/22 01:59:23;;;;;;;35.80;33.80;;;16.80;73.00;;;;;;5002960;28;20487;-64
2022/08/22 02:02:01;;;;;;;33.53;31.60;;;16.80;73.00;;;;;;4997387;28;20566;-65
2022/08/22 02:04:39;;;;;;;33.67;31.97;;;16.80;72.80;;;;;;5003067;28;20462;-65
2022/08/22 02:07:14;;;;;;;35.60;33.87;;;16.90;72.50;;;;;;5008072;28;20492;-65
2022/08/22 02:09:47;;;;;;;35.93;34.03;;;16.90;72.40;;;;;;5002036;28;20565;-65
2022/08/22 02:12:24;;;;;;;38.47;36.43;;;16.90;72.30;;;;;;5007891;28;20485;-65
2022/08/22 02:15:05;;;;;;;36.87;34.93;;;16.90;72.20;;;;;;5005380;28;20540;-65
2022/08/22 02:17:34;;;;;;;40.57;38.63;;;16.70;72.60;;;;;;5005730;28;20466;-65
2022/08/22 02:20:10;;;;;;;34.23;32.33;;;16.70;72.90;;;;;;5004985;28;20869;-65
2022/08/22 02:22:51;;;;;;;34.30;32.60;;;16.70;73.00;;;;;;5007820;28;20520;-64
2022/08/22 02:25:24;;;;;;;34.80;33.07;;;16.60;73.30;;;;;;5006243;28;20461;-65
2022/08/22 02:27:56;;;;;;;36.30;34.50;;;16.70;73.10;;;;;;5004155;28;21538;-65
2022/08/22 02:30:29;;;;;;;37.63;35.83;;;16.60;73.20;;;;;;5006627;28;20463;-65
2022/08/22 02:33:04;;;;;;;35.90;33.87;;;16.60;73.30;;;;;;5006068;28;20551;-65
2022/08/22 02:35:35;;;;;;;39.60;37.60;;;16.50;73.40;;;;;;5007573;28;20465;-65
2022/08/22 02:38:22;;;;;;;39.57;37.57;;;16.50;73.80;;;;;;5006352;28;20540;-65
2022/08/22 02:41:00;;;;;;;40.90;38.70;;;16.50;73.90;;;;;;5005433;28;20934;-65
2022/08/22 02:43:36;;;;;;;37.83;35.93;;;16.50;74.00;;;;;;5001747;28;20464;-65
2022/08/22 02:46:16;;;;;;;46.57;44.17;;;16.50;74.00;;;;;;5008331;28;20554;-65
2022/08/22 02:48:48;;;;;;;43.37;41.00;;;16.50;74.00;;;;;;5005274;28;21038;-65
2022/08/22 02:51:21;;;;;;;38.10;36.20;;;16.40;73.80;;;;;;5007095;28;20501;-65
2022/08/22 02:53:56;;;;;;;37.40;35.60;;;16.30;74.30;;;;;;4998080;28;20488;-65
2022/08/22 02:56:31;;;;;;;39.90;37.90;;;16.20;74.40;;;;;;5005419;28;20465;-65
2022/08/22 02:59:24;;;;;;;37.50;35.50;;;16.20;74.70;;;;;;5002184;28;20524;-64
2022/08/22 03:01:51;;;;;;;37.30;35.20;;;16.20;74.90;;;;;;4996175;28;20482;-65
2022/08/22 03:04:46;;;;;;;37.10;35.30;;;16.20;75.30;;;;;;5001167;28;20492;-65
2022/08/22 03:07:29;;;;;;;39.57;37.67;;;16.20;74.90;;;;;;5007055;28;20453;-65
2022/08/22 03:10:08;;;;;;;42.87;40.60;;;16.10;75.30;;;;;;4998217;28;20607;-65
2022/08/22 03:12:44;;;;;;;55.00;52.30;;;16.00;75.40;;;;;;4996807;28;20483;-65
2022/08/22 03:15:18;;;;;;;44.00;41.70;;;16.00;75.80;;;;;;5006792;28;20520;-65
2022/08/22 03:17:51;;;;;;;39.83;38.03;;;16.00;75.50;;;;;;5008637;28;22376;-67
2022/08/22 03:20:36;;;;;;;38.77;36.43;;;16.00;75.50;;;;;;5003931;28;20485;-68
2022/08/22 03:23:09;;;;;;;50.90;48.40;;;16.10;75.70;;;;;;5006633;28;20545;-68
2022/08/22 03:25:45;;;;;;;41.20;39.20;;;16.10;75.60;;;;;;5004610;28;20457;-68
2022/08/22 03:28:18;;;;;;;38.77;36.87;;;16.10;75.40;;;;;;5006487;28;20810;-69
2022/08/22 03:30:57;;;;;;;53.03;50.27;;;16.10;75.40;;;;;;5007277;28;20521;-71
2022/08/22 03:33:26;;;;;;;48.97;46.60;;;16.10;75.30;;;;;;4993588;28;20552;-67
2022/08/22 03:36:03;;;;;;;41.37;39.17;;;16.10;75.10;;;;;;5000001;28;21018;-65
2022/08/22 03:38:47;;;;;;;56.70;53.63;;;16.00;75.30;;;;;;5004261;28;20498;-65
2022/08/22 03:42:02;;;;;;;38.50;36.60;;;16.00;75.30;;;;;;5005489;28;20469;-66
2022/08/22 03:45:06;;;;;;;51.90;49.53;;;15.90;75.50;;;;;;5005669;28;20933;-68
2022/08/22 03:48:07;;;;;;;42.50;40.30;;;15.80;75.60;;;;;;5007019;28;20461;-68
2022/08/22 03:51:03;;;;;;;40.17;38.17;;;15.70;75.70;;;;;;5005935;28;20856;-68
2022/08/22 03:54:07;;;;;;;61.57;58.40;;;15.70;75.90;;;;;;5000803;28;20560;-67
2022/08/22 03:57:10;;;;;;;39.80;37.87;;;15.60;76.30;;;;;;5008532;28;20885;-66
2022/08/22 04:00:05;;;;;;;40.10;38.20;;;15.60;76.40;;;;;;5007037;28;20700;-69
2022/08/22 04:03:11;;;;;;;50.30;47.80;;;15.70;76.40;;;;;;5004686;28;21022;-68
2022/08/22 04:06:08;;;;;;;51.13;48.47;;;15.70;76.40;;;;;;5008910;28;20481;-67
2022/08/22 04:09:27;;;;;;;50.17;47.80;;;15.70;76.20;;;;;;4977141;28;20542;-70
2022/08/22 04:12:45;;;;;;;45.40;43.20;;;15.70;76.40;;;;;;4996140;28;20532;-68
2022/08/22 04:15:39;;;;;;;56.20;53.30;;;15.70;76.20;;;;;;4952379;28;20566;-70
2022/08/22 04:18:33;;;;;;;65.63;62.13;;;15.60;76.30;;;;;;4979075;28;20897;-68
2022/08/22 04:21:31;;;;;;;44.53;42.23;;;15.60;76.60;;;;;;5008481;28;20558;-68
2022/08/22 04:24:13;;;;;;;53.50;50.97;;;15.70;76.60;;;;;;4998884;28;20819;-68
2022/08/22 04:26:47;;;;;;;46.13;43.80;;;15.70;76.60;;;;;;5005974;28;20848;-69
2022/08/22 04:29:21;;;;;;;53.10;50.50;;;15.70;76.30;;;;;;5004087;28;20552;-67
2022/08/22 04:31:57;;;;;;;37.55;35.67;;;15.70;76.50;;;;;;5009773;28;20553;-70
2022/08/22 04:34:32;;;;;;;61.67;58.60;;;15.90;76.20;;;;;;5005455;28;20481;-65
2022/08/22 04:37:05;;;;;;;54.50;51.90;;;15.90;76.10;;;;;;5010803;28;20456;-67
2022/08/22 04:39:37;;;;;;;42.13;40.03;;;15.90;76.20;;;;;;4998821;28;20893;-67
2022/08/22 04:42:13;;;;;;;40.00;37.90;;;15.90;76.20;;;;;;5008197;28;20486;-69
2022/08/22 04:44:49;;;;;;;42.58;40.20;;;15.90;76.00;;;;;;4994166;28;20562;-69
2022/08/22 04:47:30;;;;;;;47.67;45.43;;;16.00;75.70;;;;;;5004925;28;20297;-69
2022/08/22 04:50:03;;;;;;;43.20;41.00;;;15.90;75.90;;;;;;5006989;28;20469;-73
2022/08/22 04:52:40;;;;;;;40.53;38.33;;;15.80;76.50;;;;;;5008570;28;20482;-66
2022/08/22 04:55:21;;;;;;;49.90;47.50;;;15.70;76.80;;;;;;5005355;28;20486;-69
2022/08/22 04:57:56;;;;;;;47.77;44.83;;;15.70;77.00;;;;;;5006535;28;20468;-69
2022/08/22 05:00:25;;;;;;;53.37;50.57;;;15.60;77.30;;;;;;5002192;28;20467;-71
2022/08/22 05:02:56;;;;;;;52.13;49.43;;;15.70;77.20;;;;;;5005621;28;20462;-66
2022/08/22 05:05:30;;;;;;;60.00;56.80;;;15.70;77.20;;;;;;5005225;28;20457;-68
2022/08/22 05:08:01;;;;;;;40.97;38.73;;;15.70;77.40;;;;;;4999054;28;20493;-72
2022/08/22 05:10:34;;;;;;;53.23;50.43;;;15.80;77.40;;;;;;5009125;28;20458;-72
2022/08/22 05:13:06;;;;;;;44.03;41.80;;;15.90;77.10;;;;;;5006332;28;20945;-69
2022/08/22 05:15:38;;;;;;;41.10;39.17;;;16.00;76.90;;;;;;5012065;28;20563;-69
2022/08/22 05:18:08;;;;;;;39.80;37.53;;;16.20;76.60;;;;;;5002426;28;20487;-64
2022/08/22 05:20:38;;;;;;;51.00;48.30;;;16.30;76.00;;;;;;5006012;28;23307;-68
2022/08/22 05:23:13;;;;;;;50.17;47.43;;;16.40;75.40;;;;;;5001761;28;20462;-69
2022/08/22 05:25:44;;;;;;;44.70;42.40;;;16.60;74.90;;;;;;5007473;28;20519;-68
2022/08/22 05:28:17;;;;;;;41.50;39.30;;;16.60;74.80;;;;;;5001250;28;20865;-69
2022/08/22 05:30:48;;;;;;;51.50;48.87;;;16.70;74.40;;;;;;5010024;28;20482;-68
2022/08/22 05:33:29;;;;;;;41.17;38.90;;;16.80;74.10;;;;;;5008166;28;20463;-70
2022/08/22 05:36:02;;;;;;;47.00;44.63;;;16.80;74.30;;;;;;5003955;28;20538;-68
2022/08/22 05:38:34;;;;;;;44.50;42.07;;;16.90;74.30;;;;;;4998520;28;20993;-69
2022/08/22 05:44:25;;;;;;;49.22;46.60;;;17.00;74.00;;;;;;4999476;28;20470;-67
2022/08/22 05:47:01;;;;;;;43.70;41.50;;;17.00;73.90;;;;;;5003226;28;20572;-67
2022/08/22 05:50:07;;;;;;;59.97;56.93;;;17.00;73.60;;;;;;5003615;28;20495;-67
2022/08/22 05:52:43;;;;;;;42.17;39.97;;;17.10;73.40;;;;;;5004932;28;20607;-68
2022/08/22 05:55:22;;;;;;;57.73;54.87;;;17.00;73.70;;;;;;5006187;28;20491;-66
2022/08/22 05:58:02;;;;;;;49.33;46.83;;;17.00;73.80;;;;;;5006853;28;20497;-66
2022/08/22 06:00:34;;;;;;;44.33;42.17;;;17.00;74.00;;;;;;5010091;28;20466;-67
2022/08/22 06:03:16;;;;;;;70.10;66.50;;;17.10;73.90;;;;;;5008770;28;20467;-66
2022/08/22 06:05:46;;;;;;;55.10;52.30;;;17.20;73.60;;;;;;5006627;28;20816;-68
2022/08/22 06:08:22;;;;;;;45.37;43.23;;;17.30;73.50;;;;;;5005857;28;20453;-71
2022/08/22 06:10:53;;;;;;;46.03;43.73;;;17.40;73.10;;;;;;4996885;28;20554;-68
2022/08/22 06:13:31;;;;;;;54.27;51.43;;;17.60;72.90;;;;;;4993573;28;20467;-66
2022/08/22 06:16:07;;;;;;;46.67;44.17;;;17.80;72.50;;;;;;4999322;28;20476;-66
2022/08/22 06:18:37;;;;;;;49.83;47.07;;;17.90;72.20;;;;;;5007584;28;20456;-66
2022/08/22 06:21:09;;;;;;;43.73;41.47;;;18.00;71.60;;;;;;5007048;28;21018;-66
2022/08/22 06:23:40;;;;;;;46.33;44.07;;;18.10;71.50;;;;;;5002083;28;20453;-66
2022/08/22 06:26:10;;;;;;;50.60;48.00;;;18.10;71.60;;;;;;5007653;28;21033;-67
2022/08/22 06:28:40;;;;;;;54.03;51.33;;;18.20;71.50;;;;;;5002365;28;20485;-66
2022/08/22 06:31:12;;;;;;;50.30;47.87;;;18.20;71.50;;;;;;5009220;28;20482;-69
2022/08/22 06:33:43;;;;;;;66.17;62.33;;;18.40;71.20;;;;;;5003905;28;20485;-72
2022/08/22 06:36:33;;;;;;;59.23;56.07;;;18.50;70.90;;;;;;5006628;28;20951;-68
2022/08/22 06:39:09;;;;;;;47.70;45.13;;;18.70;70.50;;;;;;5002223;28;20467;-67
2022/08/22 06:41:46;;;;;;;63.13;59.80;;;18.80;70.10;;;;;;5009843;28;20556;-66
2022/08/22 06:44:17;;;;;;;47.37;44.47;;;19.00;69.80;;;;;;5005456;28;20536;-67
2022/08/22 06:46:47;;;;;;;49.17;46.90;;;19.10;69.20;;;;;;5007359;28;20576;-67
2022/08/22 06:49:16;;;;;;;55.53;52.73;;;19.20;68.70;;;;;;4999761;28;20455;-66
2022/08/22 06:51:44;;;;;;;52.87;50.07;;;19.40;68.40;;;;;;5006904;28;20489;-70
2022/08/22 06:54:17;;;;;;;41.80;39.37;;;19.50;68.10;;;;;;5005219;28;20579;-68
2022/08/22 06:56:48;;;;;;;42.40;40.10;;;19.70;68.00;;;;;;5007832;28;20499;-70
2022/08/22 06:59:18;;;;;;;47.90;45.27;;;19.80;68.10;;;;;;5007364;28;20582;-69
2022/08/22 07:01:51;;;;;;;46.20;43.67;;;19.90;68.10;;;;;;5006317;28;20567;-67
2022/08/22 07:04:25;;;;;;;39.53;37.53;;;19.90;67.90;;;;;;4994663;28;20994;-66
2022/08/22 07:06:55;;;;;;;44.53;42.43;;;20.10;67.60;;;;;;4999877;28;20564;-66
2022/08/22 07:09:26;;;;;;;38.70;36.60;;;20.20;67.40;;;;;;5007018;28;20556;-66
2022/08/22 07:11:56;;;;;;;52.10;49.60;;;20.30;66.80;;;;;;5006663;28;20478;-68
2022/08/22 07:14:31;;;;;;;37.23;35.43;;;20.40;66.20;;;;;;5004839;28;20503;-66
2022/08/22 07:17:00;;;;;;;44.63;42.10;;;20.50;65.90;;;;;;5003479;28;20531;-65
2022/08/22 07:19:31;;;;;;;40.00;38.00;;;20.60;65.80;;;;;;4993746;28;20461;-65
2022/08/22 07:22:10;;;;;;;46.97;44.67;;;20.80;65.00;;;;;;5004662;28;20480;-69
2022/08/22 07:24:43;;;;;;;41.30;39.17;;;20.90;64.10;;;;;;5004924;28;20457;-66
2022/08/22 07:27:21;;;;;;;47.67;45.30;;;20.90;63.90;;;;;;5006544;28;20457;-67
2022/08/22 07:29:54;;;;;;;51.37;48.67;;;21.00;64.20;;;;;;4994777;28;20465;-69
2022/08/22 07:32:27;;;;;;;39.10;36.30;;;21.10;62.90;;;;;;4998007;28;20559;-68
2022/08/22 07:35:09;;;;;;;50.37;47.97;;;21.10;62.80;;;;;;4997450;28;20477;-69
2022/08/22 07:37:55;;;;;;;40.80;38.40;;;21.20;62.30;;;;;;5008086;28;20475;-70
2022/08/22 07:40:28;;;;;;;57.00;53.53;;;21.20;62.60;;;;;;5003626;28;21347;-69
2022/08/22 07:43:01;;;;;;;52.43;49.50;;;21.30;62.50;;;;;;5000530;28;20478;-68
2022/08/22 07:45:35;;;;;;;41.57;39.27;;;21.40;61.90;;;;;;5003837;28;20465;-71
2022/08/22 07:48:16;;;;;;;36.80;35.00;;;21.50;61.90;;;;;;5011060;28;20473;-71
2022/08/22 07:50:53;;;;;;;35.40;33.70;;;21.60;61.60;;;;;;5006130;28;21068;-70
2022/08/22 07:53:28;;;;;;;37.20;35.20;;;21.50;61.70;;;;;;5005707;28;20453;-70
2022/08/22 07:55:57;;;;;;;43.03;40.93;;;21.60;61.30;;;;;;5005724;28;20473;-69
2022/08/22 07:58:28;;;;;;;39.07;36.93;;;21.60;61.20;;;;;;5001692;28;20545;-69
2022/08/22 08:00:56;;;;;;;47.07;44.57;;;21.60;61.20;;;;;;5003211;28;20491;-69
2022/08/22 08:03:25;;;;;;;53.00;50.23;;;21.80;61.00;;;;;;5006389;28;20552;-67
2022/08/22 08:05:54;;;;;;;51.27;48.50;;;21.90;60.70;;;;;;5010882;28;20485;-68
2022/08/22 08:08:26;;;;;;;45.10;42.90;;;22.00;60.50;;;;;;5006942;28;20473;-67
2022/08/22 08:10:56;;;;;;;35.10;33.40;;;22.30;59.80;;;;;;5007513;28;20551;-67
2022/08/22 08:13:29;;;;;;;35.77;34.00;;;22.40;59.60;;;;;;5007052;28;20977;-67
2022/08/22 08:15:57;;;;;;;36.03;34.33;;;22.80;58.60;;;;;;5008093;28;20572;-67
2022/08/22 08:18:27;;;;;;;35.03;33.33;;;22.80;58.60;;;;;;5010300;28;20951;-66
2022/08/22 08:21:00;;;;;;;44.90;42.13;;;23.00;58.50;;;;;;5007288;28;20891;-67
2022/08/22 08:23:31;;;;;;;42.07;39.97;;;23.20;57.90;;;;;;5003933;28;20493;-67
2022/08/22 08:26:05;;;;;;;34.67;33.07;;;23.20;57.50;;;;;;4997010;28;20546;-70
2022/08/22 08:28:36;;;;;;;44.40;42.00;;;23.20;57.90;;;;;;5006322;28;20515;-67
2022/08/22 08:31:08;;;;;;;36.67;34.57;;;23.30;57.90;;;;;;5005762;28;20585;-67
2022/08/22 08:33:38;;;;;;;49.47;46.77;;;23.50;57.40;;;;;;4998565;28;20929;-68
2022/08/22 08:36:25;;;;;;;40.60;38.63;;;23.50;57.50;;;;;;5009917;28;20496;-69
2022/08/22 08:38:58;;;;;;;36.33;34.57;;;23.50;57.50;;;;;;5003981;28;21042;-66
2022/08/22 08:41:53;;;;;;;50.63;48.13;;;23.60;57.70;;;;;;5007618;28;20530;-67
2022/08/22 08:44:39;;;;;;;34.27;32.57;;;23.80;57.50;;;;;;4997353;28;20467;-67
2022/08/22 08:47:24;;;;;;;42.13;40.07;;;23.90;57.10;;;;;;5009746;28;20470;-67
2022/08/22 08:50:21;;;;;;;35.27;33.40;;;24.10;57.00;;;;;;5000558;28;20540;-67
2022/08/22 08:53:01;;;;;;;46.40;44.10;;;24.20;56.90;;;;;;5006428;28;21270;-65
2022/08/22 08:55:43;;;;;;;37.73;35.90;;;24.30;56.10;;;;;;5005076;28;20562;-66
2022/08/22 08:58:36;;;;;;;35.40;33.70;;;24.30;56.40;;;;;;5005643;28;20958;-67
2022/08/22 09:01:26;;;;;;;53.70;51.00;;;24.40;55.90;;;;;;4996516;28;20480;-67
2022/08/22 09:04:27;;;;;;;38.40;36.60;;;24.60;56.00;;;;;;4997942;28;21011;-68
2022/08/22 09:07:22;;;;;;;41.17;38.97;;;24.60;55.90;;;;;;4993006;28;20462;-70
2022/08/22 09:10:11;;;;;;;47.97;45.70;;;24.70;55.80;;;;;;4993963;28;21545;-70
2022/08/22 09:13:06;;;;;;;38.63;36.73;;;24.90;55.10;;;;;;5003529;28;20468;-65
2022/08/22 09:15:50;;;;;;;45.27;42.97;;;24.90;55.30;;;;;;5005131;28;20481;-69
2022/08/22 09:18:37;;;;;;;38.50;36.60;;;24.90;54.90;;;;;;5004746;28;20494;-65
2022/08/22 09:21:25;;;;;;;36.87;34.97;;;24.70;56.00;;;;;;5007642;28;20514;-70
2022/08/22 09:24:24;;;;;;;47.63;45.27;;;24.60;55.90;;;;;;5003814;28;20553;-70
2022/08/22 09:26:56;;;;;;;43.47;41.37;;;24.70;56.00;;;;;;5007902;28;20532;-71
2022/08/22 09:29:49;;;;;;;35.90;34.20;;;24.90;55.40;;;;;;4999151;28;21046;-67
2022/08/22 09:32:22;;;;;;;46.60;44.33;;;25.00;55.00;;;;;;4998543;28;20481;-67
2022/08/22 09:35:02;;;;;;;43.37;41.17;;;24.90;54.90;;;;;;5007114;28;20876;-67
2022/08/22 09:37:41;;;;;;;37.10;35.23;;;25.00;55.10;;;;;;4998573;28;20466;-65
2022/08/22 09:40:17;;;;;;;40.37;38.43;;;25.20;54.90;;;;;;5004305;28;20563;-69
2022/08/22 09:42:57;;;;;;;36.83;34.83;;;25.40;54.10;;;;;;4998084;28;20585;-66
2022/08/22 09:45:47;;;;;;;50.60;48.03;;;25.50;53.30;;;;;;5005608;28;20500;-65
2022/08/22 09:48:41;;;;;;;47.87;45.53;;;25.40;53.90;;;;;;5001699;28;20474;-65
2022/08/22 09:51:30;;;;;;;42.40;40.40;;;25.40;54.20;;;;;;4999699;28;20560;-65
2022/08/22 09:54:16;;;;;;;37.10;35.30;;;25.50;54.10;;;;;;4996464;28;20454;-67
2022/08/22 09:56:57;;;;;;;37.70;35.50;;;25.70;53.80;;;;;;5001517;28;20486;-67
2022/08/22 09:59:37;;;;;;;47.50;44.90;;;25.90;53.10;;;;;;5000779;28;20472;-67
2022/08/22 10:02:17;;;;;;;52.50;49.80;;;25.80;53.30;;;;;;5006474;28;21503;-67
2022/08/22 10:04:52;;;;;;;46.43;44.27;;;25.90;53.30;;;;;;5004785;28;20453;-69
2022/08/22 10:07:40;;;;;;;51.40;48.80;;;26.00;52.70;;;;;;5008612;28;20467;-70
2022/08/22 10:10:24;;;;;;;36.30;34.40;;;26.10;50.80;;;;;;5004791;28;20575;-67
2022/08/22 10:12:59;;;;;;;43.67;41.53;;;26.10;50.20;;;;;;5006507;28;20448;-69
2022/08/22 10:15:37;;;;;;;47.13;44.83;;;26.10;50.10;;;;;;4999964;28;20484;-68
2022/08/22 10:18:16;;;;;;;35.30;33.53;;;26.20;50.00;;;;;;5006376;28;20636;-69
2022/08/22 10:20:57;;;;;;;45.30;42.90;;;26.30;49.70;;;;;;5004264;28;20481;-68
2022/08/22 10:23:29;;;;;;;38.47;36.37;;;26.40;49.30;;;;;;4993004;28;20460;-68
2022/08/22 10:26:07;;;;;;;44.83;42.67;;;26.50;48.30;;;;;;5008285;28;20460;-70
2022/08/22 10:28:45;;;;;;;40.23;38.30;;;26.60;48.00;;;;;;4999921;28;20464;-70
2022/08/22 10:31:23;;;;;;;53.00;50.30;;;26.70;48.00;;;;;;5007669;28;20491;-68
2022/08/22 10:33:59;;;;;;;42.40;40.30;;;26.80;48.40;;;;;;5003457;28;20457;-66
2022/08/22 10:36:33;;;;;;;38.60;36.70;;;26.90;47.60;;;;;;4992159;28;20488;-67
2022/08/22 10:39:03;;;;;;;44.70;42.50;;;27.20;47.10;;;;;;5002236;28;20543;-68
2022/08/22 10:41:37;;;;;;;47.80;45.37;;;27.20;47.80;;;;;;5006242;28;20580;-66
2022/08/22 10:44:16;;;;;;;50.23;47.73;;;27.40;46.30;;;;;;5004151;28;20460;-68
2022/08/22 10:46:51;;;;;;;42.07;39.97;;;27.50;46.10;;;;;;5001239;28;20457;-68
2022/08/22 10:49:24;;;;;;;47.60;45.00;;;27.50;46.60;;;;;;5001570;28;21144;-68
2022/08/22 10:51:57;;;;;;;49.00;46.70;;;27.40;46.70;;;;;;5003343;28;20487;-71
2022/08/22 10:54:34;;;;;;;49.33;46.90;;;27.30;47.60;;;;;;5010393;28;21037;-68
2022/08/22 10:57:14;;;;;;;39.53;37.60;;;27.30;47.10;;;;;;5002612;28;20912;-69
2022/08/22 10:59:46;;;;;;;42.67;40.23;;;27.40;46.50;;;;;;4994383;28;20465;-69
2022/08/22 11:02:40;;;;;;;37.33;35.60;;;27.20;46.80;;;;;;5006473;28;21080;-68
2022/08/22 11:05:34;;;;;;;40.63;38.60;;;26.90;47.50;;;;;;5004674;28;20472;-68
2022/08/22 11:08:38;;;;;;;41.90;39.40;;;26.90;47.20;;;;;;4999550;28;21306;-69
2022/08/22 11:11:35;;;;;;;52.60;49.93;;;26.90;47.20;;;;;;4997572;28;20473;-69
2022/08/22 11:14:34;;;;;;;34.87;33.17;;;26.90;47.50;;;;;;5003704;28;20465;-70
2022/08/22 11:17:18;;;;;;;40.60;38.57;;;27.10;47.30;;;;;;5001666;28;20591;-70
2022/08/22 11:20:16;;;;;;;43.27;41.03;;;27.30;47.20;;;;;;4997114;28;20540;-69
2022/08/22 11:22:49;;;;;;;47.50;45.00;;;27.30;46.80;;;;;;5003987;28;20498;-69
2022/08/22 11:25:24;;;;;;;40.60;38.60;;;27.60;45.90;;;;;;5001703;28;20465;-69
2022/08/22 11:28:25;;;;;;;51.87;49.33;;;27.60;45.90;;;;;;5002041;28;20481;-70
2022/08/22 11:31:03;;;;;;;45.90;43.70;;;27.60;46.00;;;;;;4998116;28;20472;-70
2022/08/22 11:33:40;;;;;;;59.93;57.13;;;27.80;45.50;;;;;;5003001;28;20969;-70
2022/08/22 11:36:26;;;;;;;37.90;36.10;;;28.10;44.70;;;;;;5010551;28;20511;-70
2022/08/22 11:39:06;;;;;;;41.60;39.40;;;28.20;44.30;;;;;;4999578;28;20529;-69
2022/08/22 11:41:39;;;;;;;37.20;35.17;;;28.20;44.40;;;;;;5009437;28;20516;-67
2022/08/22 11:44:13;;;;;;;48.57;46.00;;;28.20;44.80;;;;;;5008613;28;20492;-69
2022/08/22 11:46:43;;;;;;;39.43;37.53;;;28.40;44.70;;;;;;5002963;28;20519;-66
2022/08/22 11:49:31;;;;;;;41.10;39.00;;;28.50;43.90;;;;;;5004015;28;20457;-68
2022/08/22 11:52:18;;;;;;;40.10;38.13;;;28.30;44.00;;;;;;4995349;28;20469;-68
2022/08/22 11:55:08;;;;;;;56.80;53.90;;;28.10;44.80;;;;;;5003300;28;21025;-69
2022/08/22 11:57:38;;;;;;;41.50;39.50;;;28.30;44.60;;;;;;5005866;28;21007;-68
2022/08/22 12:00:26;;;;;;;40.03;38.03;;;28.40;43.10;;;;;;5007160;28;20461;-68
2022/08/22 12:03:19;;;;;;;55.43;52.70;;;28.70;42.00;;;;;;5009831;28;20531;-69
2022/08/22 12:05:49;;;;;;;37.43;35.07;;;28.90;41.40;;;;;;5000212;28;20445;-69
2022/08/22 12:08:48;;;;;;;39.83;37.90;;;28.60;43.00;;;;;;5000522;28;20827;-66
2022/08/22 12:11:23;;;;;;;46.23;43.90;;;28.40;43.30;;;;;;5001706;28;20535;-66
2022/08/22 12:13:54;;;;;;;37.83;35.93;;;28.30;44.40;;;;;;4996781;28;20871;-66
2022/08/22 12:16:27;;;;;;;52.90;50.27;;;28.10;44.70;;;;;;4998987;28;20480;-66
2022/08/22 12:19:01;;;;;;;51.90;49.40;;;27.90;44.70;;;;;;5002372;28;20552;-66
2022/08/22 12:22:15;;;;;;;45.73;43.53;;;27.80;44.30;;;;;;5005197;28;20543;-66
2022/08/22 12:24:59;;;;;;;55.63;52.83;;;27.60;45.40;;;;;;5003273;28;20549;-66
2022/08/22 12:27:44;;;;;;;38.57;36.67;;;27.40;45.90;;;;;;5001619;28;20467;-66
2022/08/22 12:30:19;;;;;;;40.53;38.57;;;27.60;45.70;;;;;;4997796;28;20461;-66
2022/08/22 12:33:33;;;;;;;51.93;49.43;;;27.60;45.80;;;;;;5003696;28;21026;-66
2022/08/22 12:36:25;;;;;;;37.50;35.70;;;27.70;45.80;;;;;;4986118;28;20556;-66
2022/08/22 12:39:12;;;;;;;52.57;49.87;;;27.80;45.60;;;;;;5002856;28;20468;-66
2022/08/22 12:42:07;;;;;;;50.80;48.20;;;27.90;45.30;;;;;;5007615;28;20800;-66
2022/08/22 12:44:46;;;;;;;44.73;42.50;;;28.00;45.20;;;;;;4999551;28;20464;-66
2022/08/22 12:47:30;;;;;;;53.43;50.67;;;28.00;45.00;;;;;;5001454;28;20475;-66
2022/08/22 12:50:18;;;;;;;40.37;38.37;;;28.10;45.30;;;;;;5000999;28;20461;-66
2022/08/22 12:53:00;;;;;;;53.73;51.03;;;28.20;45.00;;;;;;5006211;28;20469;-66
2022/08/22 12:55:38;;;;;;;43.10;41.00;;;28.30;44.30;;;;;;4994457;28;20458;-67
2022/08/22 12:58:17;;;;;;;41.63;39.57;;;28.40;43.90;;;;;;4998914;28;20449;-66
2022/08/22 13:00:46;;;;;;;41.70;39.70;;;28.60;43.60;;;;;;5001475;28;20469;-65
2022/08/22 13:03:27;;;;;;;60.10;57.10;;;29.00;43.00;;;;;;4999026;28;20545;-66
2022/08/22 13:05:55;;;;;;;47.83;45.60;;;29.00;43.00;;;;;;4997965;28;20457;-66
2022/08/22 13:08:28;;;;;;;40.50;38.60;;;29.00;42.80;;;;;;4998498;28;20571;-66
2022/08/22 13:11:00;;;;;;;53.63;51.13;;;28.90;43.00;;;;;;5008147;28;20481;-66
2022/08/22 13:13:31;;;;;;;49.07;46.40;;;28.70;43.40;;;;;;5005282;28;20457;-66
2022/08/22 13:16:01;;;;;;;57.90;55.00;;;28.70;43.30;;;;;;4993165;28;20899;-66
2022/08/22 13:18:35;;;;;;;38.20;36.30;;;28.60;43.40;;;;;;5007051;28;20552;-66
2022/08/22 13:21:06;;;;;;;44.10;41.67;;;28.40;43.70;;;;;;5004227;28;20477;-66
2022/08/22 13:23:36;;;;;;;43.63;41.53;;;28.60;43.50;;;;;;5000152;28;20457;-68
2022/08/22 13:26:10;;;;;;;61.03;58.03;;;28.80;43.40;;;;;;4997892;28;20497;-66
2022/08/22 13:28:43;;;;;;;43.80;41.70;;;29.10;43.10;;;;;;5000625;28;20852;-66
2022/08/22 13:31:20;;;;;;;54.27;51.67;;;29.50;42.30;;;;;;5009017;28;21041;-66
2022/08/22 13:33:48;;;;;;;47.07;44.87;;;29.60;41.90;;;;;;4999258;28;20449;-66
2022/08/22 13:36:19;;;;;;;58.93;56.13;;;29.60;41.50;;;;;;5004626;28;20568;-66